Time;durP1;ratioP1;P1;durP2;ratioP2;P2;SDS_P1;SDS_P2;PMS_P1;PMS_P2;Temp;Humidity;BMP_temperature;BMP_pressure;BME280_temperature;BME280_humidity;BME280_pressure;Samples;Min_cycle;Max_cycle;Signal;HPM_P1;HPM_P2
2021/09/03 00:00:30;;;;;;;13.40;5.40;;;;;;;11.35;70.15;98892.73;27041;1218;3053483;-71
2021/09/03 00:02:59;;;;;;;13.70;5.50;;;;;;;10.96;71.25;98896.23;27067;1218;3025996;-70
2021/09/03 00:05:29;;;;;;;14.80;5.80;;;;;;;10.90;71.72;98896.34;26929;1220;3048598;-72
2021/09/03 00:07:58;;;;;;;10.10;4.80;;;;;;;11.38;70.26;98904.48;27062;1218;3026263;-71
2021/09/03 00:10:28;;;;;;;10.60;5.40;;;;;;;11.67;69.07;98901.49;27044;1218;3025918;-72
2021/09/03 00:12:58;;;;;;;13.90;5.70;;;;;;;11.35;69.56;98912.09;27109;1218;3048922;-71
2021/09/03 00:15:47;;;;;;;9.50;4.70;;;;;;;11.12;70.45;98906.85;26968;1218;3053034;-70
2021/09/03 00:18:16;;;;;;;13.70;5.50;;;;;;;10.90;71.30;98914.20;26983;1219;3027026;-71
2021/09/03 00:20:45;;;;;;;23.60;6.60;;;;;;;10.81;71.66;98924.44;26918;1218;3049867;-70
2021/09/03 00:23:15;;;;;;;12.90;5.60;;;;;;;11.29;70.20;98911.94;27098;1218;3027198;-71
2021/09/03 00:25:45;;;;;;;15.30;5.50;;;;;;;11.33;69.78;98924.30;27036;1218;3056198;-72
2021/09/03 00:28:14;;;;;;;15.20;6.50;;;;;;;11.20;70.08;98914.88;27102;1218;3025751;-70
2021/09/03 00:30:43;;;;;;;15.30;5.50;;;;;;;10.99;70.94;98914.80;27069;1218;3026031;-71
2021/09/03 00:33:12;;;;;;;19.10;7.10;;;;;;;10.75;71.58;98919.61;27044;1218;3054274;-71
2021/09/03 00:35:41;;;;;;;13.50;5.10;;;;;;;10.62;72.08;98922.62;27006;1218;3026522;-70
2021/09/03 00:38:10;;;;;;;12.20;4.20;;;;;;;10.59;72.41;98921.81;27111;1218;3051552;-72
2021/09/03 00:40:39;;;;;;;13.90;4.40;;;;;;;11.13;70.62;98918.86;27090;1218;3026260;-71
2021/09/03 00:43:08;;;;;;;15.20;5.30;;;;;;;11.27;69.87;98915.59;27023;1218;3053532;-71
2021/09/03 00:45:37;;;;;;;10.50;4.60;;;;;;;11.12;70.20;98925.98;27029;1218;3026202;-71
2021/09/03 00:48:06;;;;;;;15.20;6.60;;;;;;;10.82;71.05;98929.27;27091;1218;3048496;-70
2021/09/03 00:50:35;;;;;;;22.40;8.40;;;;;;;10.75;71.37;98929.95;27023;1218;3026174;-70
2021/09/03 00:53:04;;;;;;;27.90;7.70;;;;;;;10.53;72.21;98930.93;27034;1218;3070158;-71
2021/09/03 00:55:33;;;;;;;19.60;6.90;;;;;;;10.57;72.17;98932.09;26948;1220;3026323;-71
2021/09/03 00:58:02;;;;;;;22.80;7.50;;;;;;;10.96;71.04;98925.38;27063;1218;3026101;-71
2021/09/03 01:00:31;;;;;;;20.00;8.30;;;;;;;11.06;70.49;98931.83;27022;1220;3069013;-71
2021/09/03 01:03:00;;;;;;;23.60;8.10;;;;;;;11.18;69.89;98930.82;27090;1218;3027792;-71
2021/09/03 01:05:30;;;;;;;17.60;6.80;;;;;;;10.98;70.50;98935.35;27040;1218;3051076;-71
2021/09/03 01:08:00;;;;;;;17.80;7.10;;;;;;;10.73;71.20;98943.03;27084;1217;3026419;-71
2021/09/03 01:10:29;;;;;;;16.80;6.30;;;;;;;10.47;72.27;98964.63;27049;1218;3026382;-71
2021/09/03 01:12:57;;;;;;;17.30;5.80;;;;;;;10.56;72.60;98946.85;27107;1218;3049700;-71
2021/09/03 01:15:26;;;;;;;15.60;5.40;;;;;;;10.93;71.28;98940.98;27050;1218;3026266;-72
2021/09/03 01:18:16;;;;;;;9.90;4.40;;;;;;;10.81;71.26;98943.89;26990;1218;3053032;-72
2021/09/03 01:20:45;;;;;;;16.80;5.10;;;;;;;10.78;71.30;98949.40;27059;1218;3027730;-70
2021/09/03 01:23:14;;;;;;;14.70;5.40;;;;;;;10.69;71.38;98951.73;26964;1218;3025810;-71
2021/09/03 01:25:44;;;;;;;11.20;4.40;;;;;;;10.36;72.46;98954.32;27078;1218;3026608;-71
2021/09/03 01:28:13;;;;;;;8.80;3.70;;;;;;;10.33;73.27;98957.71;27003;1218;3026289;-71
2021/09/03 01:30:42;;;;;;;13.80;4.00;;;;;;;10.76;72.15;98952.28;26988;1218;3070307;-71
2021/09/03 01:33:11;;;;;;;11.80;3.70;;;;;;;11.08;70.54;98952.38;27044;1218;3026015;-72
2021/09/03 01:35:40;;;;;;;7.80;2.60;;;;;;;10.88;71.22;98951.48;27100;1218;3049973;-70
2021/09/03 01:38:09;;;;;;;6.90;2.70;;;;;;;10.54;72.29;98962.03;27029;1218;3026326;-71
2021/09/03 01:40:37;;;;;;;9.40;3.80;;;;;;;10.41;72.57;98960.16;27067;1219;3052833;-70
2021/09/03 01:43:06;;;;;;;12.00;3.50;;;;;;;10.21;73.62;98961.79;27135;1218;3027735;-70
2021/09/03 01:45:36;;;;;;;9.90;3.10;;;;;;;10.62;72.29;98961.18;27074;1218;3049032;-71
2021/09/03 01:48:06;;;;;;;9.20;3.60;;;;;;;10.80;71.66;98958.71;27037;1220;3026414;-70
2021/09/03 01:50:35;;;;;;;14.60;4.30;;;;;;;10.70;71.83;98970.06;27012;1224;3025707;-72
2021/09/03 01:53:04;;;;;;;11.40;4.10;;;;;;;10.52;72.51;98960.24;27059;1218;3051346;-71
2021/09/03 01:55:33;;;;;;;6.10;2.80;;;;;;;10.35;73.28;98966.98;27084;1218;3026439;-71
2021/09/03 01:58:02;;;;;;;10.30;2.60;;;;;;;10.22;73.50;98976.95;27044;1218;3057672;-71
2021/09/03 02:00:31;;;;;;;8.80;2.80;;;;;;;10.62;72.63;98968.35;26925;1219;3026695;-72
2021/09/03 02:03:00;;;;;;;12.90;3.40;;;;;;;10.84;71.74;98973.84;27044;1218;3026135;-70
2021/09/03 02:05:29;;;;;;;6.90;2.60;;;;;;;10.69;72.05;98983.45;27105;1218;3055604;-71
2021/09/03 02:07:58;;;;;;;9.50;2.50;;;;;;;10.49;72.68;98983.75;26998;1218;3027624;-71
2021/09/03 02:10:27;;;;;;;7.90;2.40;;;;;;;10.37;72.72;98977.73;27055;1218;3053707;-71
2021/09/03 02:13:03;;;;;;;5.40;1.90;;;;;;;10.11;73.99;98987.70;27046;1218;3055287;-70
2021/09/03 02:15:31;;;;;;;5.80;1.90;;;;;;;10.68;72.62;98990.53;27121;1218;3027542;-71
2021/09/03 02:18:00;;;;;;;4.40;1.60;;;;;;;10.88;71.35;98996.17;27098;1218;3055750;-72
2021/09/03 02:20:29;;;;;;;5.10;1.70;;;;;;;10.58;72.07;98998.69;27040;1218;3026489;-71
2021/09/03 02:23:00;;;;;;;3.10;1.50;;;;;;;10.45;72.60;98999.27;27058;1218;3051241;-72
2021/09/03 02:25:29;;;;;;;3.30;1.50;;;;;;;10.25;73.07;99010.90;27071;1218;3026299;-69
2021/09/03 02:27:59;;;;;;;3.30;1.40;;;;;;;10.10;73.73;99010.84;27021;1218;3048397;-71
2021/09/03 02:30:28;;;;;;;4.10;1.40;;;;;;;9.93;74.87;99002.85;27033;1218;3027278;-72
2021/09/03 02:32:57;;;;;;;3.20;1.20;;;;;;;10.52;72.90;99009.09;26967;1219;3026212;-72
2021/09/03 02:35:26;;;;;;;2.50;0.90;;;;;;;10.65;71.80;99008.02;27117;1218;3047870;-71
2021/09/03 02:37:57;;;;;;;2.00;0.70;;;;;;;10.69;71.54;99023.02;27046;1218;3025877;-72
2021/09/03 02:40:26;;;;;;;3.20;0.80;;;;;;;10.40;72.53;99019.41;27008;1219;3027223;-73
2021/09/03 02:42:55;;;;;;;2.00;0.80;;;;;;;10.31;72.14;99016.80;27043;1218;3028226;-71
2021/09/03 02:45:24;;;;;;;2.20;0.80;;;;;;;10.08;73.12;99023.02;27078;1218;3050920;-71
2021/09/03 02:47:53;;;;;;;3.30;0.90;;;;;;;9.82;74.28;99022.96;27022;1218;3026401;-72
2021/09/03 02:50:22;;;;;;;0.80;0.70;;;;;;;10.30;73.03;99026.34;27066;1218;3048468;-72
2021/09/03 02:52:52;;;;;;;1.30;0.80;;;;;;;10.66;71.56;99021.86;27108;1218;3027406;-73
2021/09/03 02:55:26;;;;;;;1.60;0.90;;;;;;;10.69;70.99;99028.99;27090;1218;3069899;-71
2021/09/03 02:57:56;;;;;;;3.20;0.90;;;;;;;10.29;71.98;99034.44;27034;1218;3025916;-70
2021/09/03 03:00:27;;;;;;;3.50;0.80;;;;;;;9.92;73.42;99044.16;27076;1218;3026757;-74
2021/09/03 03:02:58;;;;;;;3.50;0.80;;;;;;;9.82;74.08;99039.08;27067;1218;3026822;-71
2021/09/03 03:05:27;;;;;;;1.00;0.70;;;;;;;10.37;72.77;99040.92;27082;1218;3026885;-71
2021/09/03 03:07:56;;;;;;;1.90;0.60;;;;;;;10.59;71.55;99047.68;27016;1218;3027237;-72
2021/09/03 03:10:25;;;;;;;2.00;0.70;;;;;;;10.36;71.53;99051.02;27091;1218;3054668;-71
2021/09/03 03:12:58;;;;;;;1.30;0.60;;;;;;;10.02;72.73;99057.39;27075;1218;3025976;-72
2021/09/03 03:15:27;;;;;;;2.10;0.90;;;;;;;9.86;73.56;99053.16;27104;1218;3026163;-73
2021/09/03 03:17:56;;;;;;;2.30;0.80;;;;;;;9.85;73.94;99056.04;27086;1222;3026307;-71
2021/09/03 03:20:25;;;;;;;2.80;0.50;;;;;;;10.40;72.12;99058.03;27030;1218;3055421;-70
2021/09/03 03:22:53;;;;;;;0.60;0.40;;;;;;;10.41;72.14;99056.76;27070;1218;3026308;-73
2021/09/03 03:25:23;;;;;;;1.40;0.60;;;;;;;10.21;72.33;99063.47;27086;1218;3054545;-72
2021/09/03 03:27:52;;;;;;;1.90;0.60;;;;;;;10.20;72.44;99063.22;27065;1218;3026223;-73
2021/09/03 03:30:22;;;;;;;1.40;0.90;;;;;;;9.96;73.20;99074.40;26991;1218;3026718;-73
2021/09/03 03:32:51;;;;;;;3.80;0.70;;;;;;;9.68;74.43;99075.96;27075;1218;3027815;-73
2021/09/03 03:35:20;;;;;;;0.90;0.50;;;;;;;9.69;74.56;99080.75;27076;1218;3057629;-70
2021/09/03 03:37:49;;;;;;;0.90;0.60;;;;;;;10.01;73.39;99086.33;27044;1218;3025892;-70
2021/09/03 03:40:18;;;;;;;4.20;0.60;;;;;;;10.15;72.79;99083.46;27132;1218;3051969;-72
2021/09/03 03:42:47;;;;;;;1.00;0.60;;;;;;;10.21;72.45;99092.70;27042;1218;3026117;-71
2021/09/03 03:45:16;;;;;;;2.10;0.50;;;;;;;9.93;73.24;99094.70;27046;1218;3051704;-72
2021/09/03 03:47:45;;;;;;;1.80;0.70;;;;;;;9.86;73.34;99093.74;27069;1218;3026277;-70
2021/09/03 03:50:15;;;;;;;1.10;0.40;;;;;;;9.69;74.33;99103.36;26975;1221;3051588;-71
2021/09/03 03:52:43;;;;;;;1.40;0.50;;;;;;;10.22;72.58;99098.28;27141;1218;3025901;-73
2021/09/03 03:55:13;;;;;;;3.80;1.10;;;;;;;10.61;71.12;99100.61;27050;1218;3067825;-72
2021/09/03 03:57:42;;;;;;;4.00;0.80;;;;;;;10.35;71.56;99105.83;27048;1218;3025723;-71
2021/09/03 04:00:12;;;;;;;2.20;1.10;;;;;;;9.99;72.67;99126.64;27022;1218;3027908;-71
2021/09/03 04:02:41;;;;;;;1.90;0.90;;;;;;;9.91;72.93;99112.14;27096;1218;3067121;-69
2021/09/03 04:05:09;;;;;;;2.10;1.10;;;;;;;9.89;73.04;99111.95;27008;1218;3027318;-70
2021/09/03 04:07:39;;;;;;;7.70;2.50;;;;;;;9.84;73.29;99115.35;27046;1218;3053654;-71
2021/09/03 04:10:08;;;;;;;6.20;2.40;;;;;;;10.35;72.06;99108.13;27044;1218;3026668;-71
2021/09/03 04:12:37;;;;;;;6.50;2.40;;;;;;;10.67;70.31;99112.33;27089;1218;3054644;-71
2021/09/03 04:15:07;;;;;;;10.20;2.90;;;;;;;10.45;70.92;99117.98;27065;1226;3026452;-69
2021/09/03 04:17:56;;;;;;;12.20;2.90;;;;;;;10.23;71.74;99117.80;26920;1218;3071128;-71
2021/09/03 04:20:26;;;;;;;5.70;2.10;;;;;;;10.04;72.67;99128.13;27066;1218;3026341;-71
2021/09/03 04:22:55;;;;;;;7.10;1.90;;;;;;;9.99;72.77;99136.64;27032;1218;3027610;-71
2021/09/03 04:25:24;;;;;;;6.60;1.80;;;;;;;10.50;71.42;99130.59;26988;1218;3067865;-74
2021/09/03 04:27:53;;;;;;;4.80;1.50;;;;;;;10.53;70.99;99130.55;27003;1222;3025825;-72
2021/09/03 04:30:22;;;;;;;4.20;1.50;;;;;;;10.36;71.43;99132.17;27000;1222;3050045;-73
2021/09/03 04:32:51;;;;;;;4.00;1.60;;;;;;;10.30;71.95;99131.02;27054;1221;3025690;-73
2021/09/03 04:35:20;;;;;;;6.70;1.70;;;;;;;10.16;72.41;99145.38;26994;1218;3051558;-71
2021/09/03 04:37:49;;;;;;;5.70;1.40;;;;;;;10.08;72.53;99139.92;26993;1219;3028213;-72
2021/09/03 04:40:18;;;;;;;3.10;1.30;;;;;;;10.04;72.80;99150.86;27052;1218;3049007;-69
2021/09/03 04:42:48;;;;;;;2.60;1.30;;;;;;;10.57;71.46;99151.35;27060;1219;3028358;-71
2021/09/03 04:45:17;;;;;;;6.70;2.80;;;;;;;10.93;69.99;99145.84;27032;1218;3026633;-71
2021/09/03 04:47:50;;;;;;;7.20;2.80;;;;;;;10.84;70.25;99148.20;27022;1218;3051347;-72
2021/09/03 04:50:19;;;;;;;5.00;2.50;;;;;;;10.67;70.69;99150.48;27094;1218;3027981;-70
2021/09/03 04:52:48;;;;;;;5.20;2.40;;;;;;;10.55;70.95;99152.52;27053;1218;3025630;-71
2021/09/03 04:55:17;;;;;;;6.80;2.70;;;;;;;10.53;71.07;99151.05;27009;1225;3049014;-73
2021/09/03 04:57:46;;;;;;;11.10;2.60;;;;;;;10.40;72.00;99155.77;27111;1217;3026022;-73
2021/09/03 05:00:16;;;;;;;7.20;2.80;;;;;;;11.01;69.94;99153.65;27098;1218;3055789;-71
2021/09/03 05:02:45;;;;;;;15.60;4.70;;;;;;;11.59;68.13;99156.56;27125;1218;3025979;-71
2021/09/03 05:05:14;;;;;;;14.30;4.40;;;;;;;11.66;67.52;99162.55;27045;1218;3025927;-74
2021/09/03 05:07:44;;;;;;;15.40;4.20;;;;;;;11.45;68.13;99165.77;27002;1218;3057498;-71
2021/09/03 05:10:13;;;;;;;7.30;2.60;;;;;;;11.26;68.53;99171.99;27049;1217;3026479;-70
2021/09/03 05:12:43;;;;;;;7.90;1.90;;;;;;;11.08;69.12;99172.15;27062;1218;3026506;-70
2021/09/03 05:15:32;;;;;;;2.90;1.30;;;;;;;10.84;69.96;99178.33;27085;1218;3054038;-71
2021/09/03 05:18:21;;;;;;;3.40;1.20;;;;;;;10.69;70.67;99187.88;26965;1223;3071106;-70
2021/09/03 05:20:50;;;;;;;2.30;1.10;;;;;;;11.22;68.93;99190.89;27028;1226;3028192;-70
2021/09/03 05:23:19;;;;;;;2.50;1.50;;;;;;;11.47;68.10;99181.45;26995;1219;3049969;-70
2021/09/03 05:25:48;;;;;;;5.20;2.00;;;;;;;11.32;68.25;99189.62;27039;1226;3026195;-70
2021/09/03 05:28:17;;;;;;;4.60;2.30;;;;;;;11.10;68.98;99193.91;27064;1218;3051969;-72
2021/09/03 05:30:46;;;;;;;8.30;2.60;;;;;;;11.11;69.20;99191.42;27014;1218;3026077;-71
2021/09/03 05:33:15;;;;;;;6.40;2.40;;;;;;;10.91;69.59;99192.18;26993;1218;3048369;-71
2021/09/03 05:35:44;;;;;;;3.70;1.50;;;;;;;11.08;69.73;99195.25;27099;1218;3029743;-70
2021/09/03 05:38:14;;;;;;;6.20;2.70;;;;;;;11.69;67.93;99201.45;27054;1218;3058613;-71
2021/09/03 05:40:44;;;;;;;3.60;1.60;;;;;;;12.02;66.62;99210.44;27072;1222;3028229;-72
2021/09/03 05:43:13;;;;;;;3.30;1.50;;;;;;;12.14;66.22;99207.38;27092;1217;3026257;-72
2021/09/03 05:45:42;;;;;;;3.00;1.30;;;;;;;11.83;66.73;99224.34;26993;1218;3057807;-71
2021/09/03 05:48:10;;;;;;;4.90;0.80;;;;;;;11.69;67.08;99228.86;27020;1218;3026017;-70
2021/09/03 05:50:39;;;;;;;2.90;0.80;;;;;;;11.61;67.19;99227.45;27053;1218;3051822;-72
2021/09/03 05:53:08;;;;;;;2.40;1.00;;;;;;;11.57;67.73;99230.75;27030;1218;3026487;-69
2021/09/03 05:55:37;;;;;;;5.10;0.90;;;;;;;11.56;67.43;99233.96;27051;1227;3051579;-72
2021/09/03 05:58:06;;;;;;;1.60;0.70;;;;;;;11.56;68.12;99233.48;27051;1218;3026114;-72
2021/09/03 06:00:35;;;;;;;2.40;0.70;;;;;;;11.71;67.59;99232.78;26969;1218;3050116;-71
2021/09/03 06:03:05;;;;;;;4.10;0.50;;;;;;;12.47;65.79;99241.67;27010;1223;3026427;-71
2021/09/03 06:05:34;;;;;;;1.40;0.70;;;;;;;12.90;63.79;99242.07;27023;1218;3025719;-71
2021/09/03 06:08:03;;;;;;;1.10;0.50;;;;;;;12.94;63.35;99241.98;27006;1219;3048332;-72
2021/09/03 06:10:33;;;;;;;3.30;0.90;;;;;;;12.54;63.74;99253.13;27066;1221;3026229;-69
2021/09/03 06:13:02;;;;;;;1.30;0.80;;;;;;;12.28;64.55;99249.52;27015;1222;3026827;-70
2021/09/03 06:15:32;;;;;;;6.50;1.00;;;;;;;12.30;64.65;99248.35;27039;1219;3026424;-70
2021/09/03 06:18:00;;;;;;;5.10;1.10;;;;;;;12.19;65.24;99255.23;26972;1221;3052200;-73
2021/09/03 06:20:29;;;;;;;4.30;1.30;;;;;;;12.10;65.39;99247.31;26985;1218;3026056;-71
2021/09/03 06:22:58;;;;;;;9.00;2.50;;;;;;;11.93;65.73;99257.36;27019;1219;3049243;-71
2021/09/03 06:25:27;;;;;;;6.10;2.00;;;;;;;11.81;66.13;99258.26;26997;1219;3026722;-72
2021/09/03 06:27:56;;;;;;;5.40;1.10;;;;;;;11.93;65.86;99261.09;27046;1226;3069746;-70
2021/09/03 06:30:26;;;;;;;5.50;1.10;;;;;;;11.90;66.15;99269.52;27048;1222;3026088;-72
2021/09/03 06:32:55;;;;;;;4.00;0.90;;;;;;;12.00;66.13;99260.98;27055;1219;3025764;-71
2021/09/03 06:35:24;;;;;;;1.10;0.60;;;;;;;12.72;63.47;99266.94;27019;1223;3068899;-71
2021/09/03 06:37:53;;;;;;;1.20;0.70;;;;;;;13.22;61.04;99266.27;27022;1219;3025541;-74
2021/09/03 06:40:22;;;;;;;5.10;1.50;;;;;;;13.27;60.86;99271.16;27070;1218;3049870;-70
2021/09/03 06:42:50;;;;;;;5.00;1.30;;;;;;;13.11;60.81;99269.20;27063;1218;3027475;-72
2021/09/03 06:45:20;;;;;;;9.60;1.80;;;;;;;13.18;60.85;99268.54;26984;1227;3054150;-72
2021/09/03 06:47:48;;;;;;;5.40;1.60;;;;;;;13.01;60.84;99274.86;26981;1224;3027715;-75
2021/09/03 06:50:18;;;;;;;8.50;2.90;;;;;;;12.94;60.61;99279.96;26984;1227;3048646;-71
2021/09/03 06:52:48;;;;;;;5.10;2.40;;;;;;;12.96;60.91;99276.80;27116;1218;3026273;-73
2021/09/03 06:55:17;;;;;;;9.90;2.70;;;;;;;13.04;60.99;99270.06;27109;1222;3057555;-71
2021/09/03 06:57:46;;;;;;;6.10;2.50;;;;;;;13.19;60.38;99277.45;27075;1227;3025841;-70
2021/09/03 07:00:15;;;;;;;7.70;2.30;;;;;;;13.18;59.52;99282.06;27008;1217;3027270;-74
2021/09/03 07:02:44;;;;;;;2.90;1.40;;;;;;;13.25;59.25;99287.52;27005;1223;3055745;-72
2021/09/03 07:05:13;;;;;;;5.20;1.40;;;;;;;13.20;58.76;99288.75;26985;1219;3026474;-71
2021/09/03 07:07:47;;;;;;;;;;;;;;;13.10;58.72;99287.04;27047;1224;3052061;-70
2021/09/03 07:10:17;;;;;;;4.80;1.50;;;;;;;13.00;58.03;99293.90;26989;1222;3027560;-71
2021/09/03 07:12:46;;;;;;;5.30;1.60;;;;;;;13.01;57.84;99296.50;26997;1222;3028727;-72
2021/09/03 07:15:15;;;;;;;2.90;1.50;;;;;;;12.96;58.11;99291.73;27000;1220;3027675;-71
2021/09/03 07:17:44;;;;;;;8.90;2.20;;;;;;;13.19;58.01;99291.49;27056;1222;3055466;-70
2021/09/03 07:20:13;;;;;;;4.00;1.50;;;;;;;13.42;56.98;99292.99;27020;1222;3026500;-71
2021/09/03 07:22:42;;;;;;;5.60;2.10;;;;;;;13.34;56.47;99298.30;26963;1221;3052965;-70
2021/09/03 07:25:11;;;;;;;5.10;2.20;;;;;;;13.37;57.15;99295.92;27047;1222;3026077;-70
2021/09/03 07:27:39;;;;;;;2.70;0.90;;;;;;;13.50;56.98;99296.20;27054;1226;3053690;-69
2021/09/03 07:30:08;;;;;;;2.60;1.00;;;;;;;13.61;56.27;99308.42;27062;1223;3026468;-71
2021/09/03 07:32:44;;;;;;;3.90;0.70;;;;;;;13.67;55.17;99302.51;27005;1223;3048620;-71
2021/09/03 07:35:13;;;;;;;4.30;1.20;;;;;;;13.59;55.16;99314.71;27049;1221;3026454;-73
2021/09/03 07:37:42;;;;;;;2.30;0.80;;;;;;;13.65;55.33;99298.08;27011;1217;3028814;-69
2021/09/03 07:40:11;;;;;;;4.00;1.00;;;;;;;13.83;54.59;99302.20;26995;1223;3048137;-70
2021/09/03 07:42:41;;;;;;;4.40;1.30;;;;;;;14.01;53.74;99298.35;27010;1222;3026442;-69
2021/09/03 07:45:11;;;;;;;2.40;1.10;;;;;;;13.96;53.01;99304.34;27031;1224;3026265;-68
2021/09/03 07:47:41;;;;;;;2.50;0.80;;;;;;;14.00;52.96;99302.44;27116;1219;3026187;-70
2021/09/03 07:50:10;;;;;;;4.00;0.80;;;;;;;14.11;52.07;99304.39;27062;1220;3026191;-69
2021/09/03 07:52:39;;;;;;;6.30;1.20;;;;;;;14.09;51.93;99297.16;27030;1228;3054309;-70
2021/09/03 07:55:08;;;;;;;4.80;0.70;;;;;;;14.05;52.07;99305.96;27032;1218;3026133;-70
2021/09/03 07:57:37;;;;;;;2.50;0.90;;;;;;;13.85;52.32;99299.42;27101;1222;3051707;-69
2021/09/03 08:00:07;;;;;;;4.50;1.00;;;;;;;13.97;52.45;99295.69;26994;1222;3026465;-70
2021/09/03 08:02:36;;;;;;;2.90;0.80;;;;;;;13.99;51.56;99299.25;27036;1222;3048262;-70
2021/09/03 08:05:05;;;;;;;3.00;0.60;;;;;;;13.99;50.96;99291.69;26990;1222;3026111;-70
2021/09/03 08:07:34;;;;;;;1.80;0.70;;;;;;;14.10;51.19;99289.90;26974;1228;3070218;-71
2021/09/03 08:10:04;;;;;;;3.90;1.10;;;;;;;14.41;51.05;99281.81;27018;1222;3026726;-70
2021/09/03 08:12:33;;;;;;;2.80;0.80;;;;;;;14.41;49.93;99289.91;26978;1219;3026194;-71
2021/09/03 08:15:22;;;;;;;1.70;0.80;;;;;;;14.21;49.83;99296.46;26922;1220;3052362;-70
2021/09/03 08:17:51;;;;;;;0.90;0.60;;;;;;;14.05;49.87;99303.29;27031;1222;3026468;-67
2021/09/03 08:20:24;;;;;;;1.40;0.70;;;;;;;14.12;49.82;99291.13;26995;1227;3025911;-70
2021/09/03 08:22:52;;;;;;;0.90;0.60;;;;;;;14.31;49.72;99283.15;27069;1219;3025783;-69
2021/09/03 08:25:21;;;;;;;2.70;0.90;;;;;;;14.53;49.17;99283.39;26948;1222;3054324;-72
2021/09/03 08:27:50;;;;;;;1.20;0.80;;;;;;;14.83;48.89;99278.90;26952;1225;3025839;-68
2021/09/03 08:30:19;;;;;;;1.90;0.70;;;;;;;14.87;48.27;99280.81;27027;1222;3050496;-68
2021/09/03 08:32:48;;;;;;;4.70;1.00;;;;;;;14.83;47.61;99284.89;27033;1225;3028980;-68
2021/09/03 08:35:18;;;;;;;2.00;0.70;;;;;;;14.76;47.83;99288.44;27031;1222;3051093;-69
2021/09/03 08:37:47;;;;;;;5.90;0.80;;;;;;;14.68;47.67;99290.27;27027;1219;3026751;-69
2021/09/03 08:40:16;;;;;;;2.00;0.70;;;;;;;14.72;47.26;99289.82;26983;1219;3049869;-68
2021/09/03 08:42:44;;;;;;;0.60;0.40;;;;;;;14.73;46.57;99286.21;27054;1219;3027061;-71
2021/09/03 08:45:15;;;;;;;1.20;0.60;;;;;;;14.91;46.26;99282.93;26974;1220;3067324;-68
2021/09/03 08:47:44;;;;;;;4.90;0.70;;;;;;;15.19;45.42;99274.84;27037;1220;3025812;-69
2021/09/03 08:50:15;;;;;;;4.80;0.70;;;;;;;15.51;45.24;99264.83;26999;1222;3027418;-68
2021/09/03 08:52:48;;;;;;;0.90;0.40;;;;;;;15.55;44.77;99277.66;27113;1222;3028266;-69
2021/09/03 08:55:17;;;;;;;3.40;0.80;;;;;;;15.44;44.59;99276.86;27020;1227;3026083;-68
2021/09/03 08:57:46;;;;;;;1.50;0.90;;;;;;;15.50;44.17;99269.12;26964;1222;3026907;-70
2021/09/03 09:00:21;;;;;;;2.10;0.80;;;;;;;15.70;44.25;99272.36;27006;1222;3052688;-70
2021/09/03 09:02:59;;;;;;;3.00;1.00;;;;;;;15.75;43.17;99277.27;27033;1222;3055850;-70
2021/09/03 09:05:43;;;;;;;3.50;0.90;;;;;;;15.83;42.61;99278.20;27060;1219;3052106;-70
2021/09/03 09:08:12;;;;;;;4.00;1.20;;;;;;;15.96;42.21;99276.16;27065;1222;3052661;-68
2021/09/03 09:11:04;;;;;;;2.00;0.50;;;;;;;15.96;42.25;99287.34;27037;1222;3053904;-69
2021/09/03 09:13:35;;;;;;;2.00;0.60;;;;;;;15.82;42.86;99282.14;26999;1222;3026061;-67
2021/09/03 09:16:26;;;;;;;1.60;0.50;;;;;;;15.81;43.13;99286.14;27548;1218;3053131;-67
2021/09/03 09:18:56;;;;;;;3.30;0.50;;;;;;;15.81;42.74;99281.54;27095;1219;3025704;-68
2021/09/03 09:21:34;;;;;;;1.30;0.60;;;;;;;15.81;42.36;99286.98;26999;1222;3026616;-68
2021/09/03 09:24:11;;;;;;;4.50;0.90;;;;;;;15.78;41.70;99284.27;26997;1222;3058649;-68
2021/09/03 09:26:57;;;;;;;2.80;0.60;;;;;;;15.93;41.70;99277.72;26971;1222;3049127;-66
2021/09/03 09:29:36;;;;;;;2.80;0.70;;;;;;;16.34;41.57;99274.84;27001;1222;3055093;-66
2021/09/03 09:32:07;;;;;;;1.90;0.60;;;;;;;16.51;40.58;99279.73;26999;1226;3051194;-67
2021/09/03 09:34:37;;;;;;;3.20;0.60;;;;;;;16.61;39.91;99274.74;26977;1222;3026336;-67
2021/09/03 09:37:10;;;;;;;2.90;0.60;;;;;;;16.86;39.50;99282.54;26958;1224;3026198;-64
2021/09/03 09:39:50;;;;;;;0.60;0.50;;;;;;;16.97;39.34;99288.42;26966;1219;3025980;-69
2021/09/03 09:42:30;;;;;;;1.20;0.50;;;;;;;16.70;39.37;99281.55;27015;1220;3052796;-67
2021/09/03 09:45:06;;;;;;;1.70;0.60;;;;;;;16.40;39.83;99295.73;27112;1218;3055705;-68
2021/09/03 09:47:36;;;;;;;3.30;1.80;;;;;;;16.40;39.32;99292.17;26979;1219;3049572;-68
2021/09/03 09:50:25;;;;;;;4.90;1.80;;;;;;;16.57;38.93;99287.86;27065;1221;3026939;-66
2021/09/03 09:53:06;;;;;;;2.60;0.60;;;;;;;16.63;38.30;99286.45;26963;1221;3050869;-68
2021/09/03 09:55:36;;;;;;;3.80;0.90;;;;;;;16.24;38.28;99287.92;26975;1221;3068566;-68
2021/09/03 09:58:06;;;;;;;1.60;0.80;;;;;;;15.91;39.81;99291.60;27057;1222;3027016;-66
2021/09/03 10:00:35;;;;;;;2.00;0.70;;;;;;;16.04;39.23;99293.22;27057;1222;3026603;-70
2021/09/03 10:03:05;;;;;;;2.40;0.50;;;;;;;16.30;38.20;99286.03;26968;1224;3026408;-69
2021/09/03 10:05:34;;;;;;;5.40;0.70;;;;;;;16.74;38.14;99285.89;26940;1225;3026420;-68
2021/09/03 10:08:04;;;;;;;1.10;0.50;;;;;;;17.06;37.21;99290.78;26972;1221;3027480;-67
2021/09/03 10:10:33;;;;;;;4.10;0.60;;;;;;;17.05;37.08;99296.71;27015;1221;3051540;-67
2021/09/03 10:13:01;;;;;;;0.70;0.50;;;;;;;17.15;37.41;99285.20;27013;1221;3026150;-67
2021/09/03 10:15:30;;;;;;;2.90;1.00;;;;;;;17.35;36.73;99286.77;26950;1219;3050463;-67
2021/09/03 10:18:19;;;;;;;2.30;1.10;;;;;;;17.44;36.62;99292.33;26966;1221;3052448;-67
2021/09/03 10:21:02;;;;;;;1.80;0.50;;;;;;;17.71;37.03;99291.77;26964;1222;3058111;-65
2021/09/03 10:23:51;;;;;;;0.70;0.50;;;;;;;17.59;36.87;99291.31;26913;1222;3026153;-65
2021/09/03 10:26:30;;;;;;;1.10;0.40;;;;;;;17.59;36.85;99303.18;27034;1222;3052554;-67
2021/09/03 10:29:12;;;;;;;2.60;0.60;;;;;;;17.52;36.70;99290.17;27058;1222;3058275;-66
2021/09/03 10:32:06;;;;;;;1.70;0.50;;;;;;;17.40;37.07;99293.77;27010;1220;3049592;-66
2021/09/03 10:34:44;;;;;;;1.60;0.50;;;;;;;17.30;36.84;99297.98;27069;1217;3053630;-66
2021/09/03 10:37:16;;;;;;;4.60;0.70;;;;;;;17.50;35.83;99293.70;27023;1220;3051302;-68
2021/09/03 10:39:46;;;;;;;2.80;0.50;;;;;;;17.65;35.68;99305.42;26961;1222;3026752;-67
2021/09/03 10:42:34;;;;;;;2.60;0.40;;;;;;;17.61;35.38;99309.10;27051;1222;3025947;-67
2021/09/03 10:45:03;;;;;;;2.10;0.40;;;;;;;17.68;35.55;99294.49;27018;1222;3054097;-65
2021/09/03 10:47:33;;;;;;;1.20;0.50;;;;;;;17.96;35.17;99295.54;27104;1222;3026217;-68
2021/09/03 10:50:20;;;;;;;1.10;0.50;;;;;;;17.97;35.13;99296.45;26983;1225;3048352;-67
2021/09/03 10:53:05;;;;;;;0.90;0.40;;;;;;;17.98;35.49;99305.71;27069;1221;3054819;-67
2021/09/03 10:55:57;;;;;;;1.70;0.60;;;;;;;17.82;35.80;99302.84;27026;1227;3053668;-64
2021/09/03 10:58:33;;;;;;;2.50;0.60;;;;;;;17.64;36.53;99303.53;26957;1227;3058796;-68
2021/09/03 11:03:43;;;;;;;2.20;0.50;;;;;;;18.03;35.84;99300.39;27031;1219;3052771;-66
2021/09/03 11:06:25;;;;;;;2.00;0.30;;;;;;;18.16;34.93;99294.51;27108;1217;3026382;-66
2021/09/03 11:08:58;;;;;;;2.90;0.30;;;;;;;18.01;35.31;99296.95;27001;1222;3070692;-64
2021/09/03 11:11:28;;;;;;;3.70;0.70;;;;;;;18.07;35.95;99294.48;27027;1222;3026430;-67
2021/09/03 11:14:08;;;;;;;2.80;0.70;;;;;;;18.27;36.38;99292.38;27128;1222;3053646;-66
2021/09/03 11:16:56;;;;;;;0.70;0.50;;;;;;;17.90;37.13;99298.73;27126;1222;3055286;-66
2021/09/03 11:19:49;;;;;;;3.30;0.50;;;;;;;17.63;38.27;99293.73;26948;1222;3058875;-69
2021/09/03 11:22:21;;;;;;;1.80;0.80;;;;;;;17.68;38.15;99289.75;26960;1222;3026641;-64
2021/09/03 11:24:52;;;;;;;1.10;0.30;;;;;;;17.84;37.12;99286.25;27029;1222;3027650;-68
2021/09/03 11:27:29;;;;;;;4.30;0.30;;;;;;;17.84;36.08;99280.67;27103;1218;3027582;-66
2021/09/03 11:30:01;;;;;;;6.30;0.80;;;;;;;17.98;36.04;99282.06;27029;1217;3067779;-68
2021/09/03 11:32:32;;;;;;;5.80;0.50;;;;;;;17.89;36.15;99283.88;27153;1222;3028278;-68
2021/09/03 11:35:12;;;;;;;0.90;0.40;;;;;;;17.93;36.23;99282.51;27056;1222;3027805;-68
2021/09/03 11:37:43;;;;;;;3.30;0.40;;;;;;;17.75;36.34;99283.08;27094;1220;3052224;-66